sensor_id;sensor_type;location;lat;lon;timestamp;temperature;humidity
43338;DHT22;28933;52.492;13.434;2023-07-08T00:00:17;21.20;65.90
43338;DHT22;28933;52.492;13.434;2023-07-08T00:03:04;21.20;65.90
43338;DHT22;28933;52.492;13.434;2023-07-08T00:05:53;21.20;66.10
43338;DHT22;28933;52.492;13.434;2023-07-08T00:08:41;21.20;66.60
43338;DHT22;28933;52.492;13.434;2023-07-08T00:11:29;21.10;66.80
43338;DHT22;28933;52.492;13.434;2023-07-08T00:14:15;21.10;67.20
43338;DHT22;28933;52.492;13.434;2023-07-08T00:17:01;21.00;67.40
43338;DHT22;28933;52.492;13.434;2023-07-08T00:19:46;21.00;67.60
43338;DHT22;28933;52.492;13.434;2023-07-08T00:22:33;20.90;67.60
43338;DHT22;28933;52.492;13.434;2023-07-08T00:25:22;20.90;67.70
43338;DHT22;28933;52.492;13.434;2023-07-08T00:28:19;20.80;68.40
43338;DHT22;28933;52.492;13.434;2023-07-08T00:31:11;20.80;68.60
43338;DHT22;28933;52.492;13.434;2023-07-08T00:33:57;20.80;68.90
43338;DHT22;28933;52.492;13.434;2023-07-08T00:36:43;20.70;69.10
43338;DHT22;28933;52.492;13.434;2023-07-08T00:39:28;20.70;69.30
43338;DHT22;28933;52.492;13.434;2023-07-08T00:42:19;20.70;69.40
43338;DHT22;28933;52.492;13.434;2023-07-08T00:48:22;20.60;69.30
43338;DHT22;28933;52.492;13.434;2023-07-08T00:51:09;20.60;69.30
43338;DHT22;28933;52.492;13.434;2023-07-08T00:53:56;20.50;69.60
43338;DHT22;28933;52.492;13.434;2023-07-08T00:56:50;20.50;69.80
43338;DHT22;28933;52.492;13.434;2023-07-08T00:59:52;20.40;70.10
43338;DHT22;28933;52.492;13.434;2023-07-08T01:02:44;20.40;70.50
43338;DHT22;28933;52.492;13.434;2023-07-08T01:05:31;20.40;70.40
43338;DHT22;28933;52.492;13.434;2023-07-08T01:08:20;20.40;70.10
43338;DHT22;28933;52.492;13.434;2023-07-08T01:11:14;20.30;69.70
43338;DHT22;28933;52.492;13.434;2023-07-08T01:14:01;20.30;69.40
43338;DHT22;28933;52.492;13.434;2023-07-08T01:16:50;20.30;69.50
43338;DHT22;28933;52.492;13.434;2023-07-08T01:19:36;20.30;69.50
43338;DHT22;28933;52.492;13.434;2023-07-08T01:22:23;20.30;69.70
43338;DHT22;28933;52.492;13.434;2023-07-08T01:25:10;20.20;69.90
43338;DHT22;28933;52.492;13.434;2023-07-08T01:27:57;20.20;70.10
43338;DHT22;28933;52.492;13.434;2023-07-08T01:30:44;20.20;70.10
43338;DHT22;28933;52.492;13.434;2023-07-08T01:33:31;20.20;70.70
43338;DHT22;28933;52.492;13.434;2023-07-08T01:36:20;20.10;70.80
43338;DHT22;28933;52.492;13.434;2023-07-08T01:39:06;20.10;71.00
43338;DHT22;28933;52.492;13.434;2023-07-08T01:41:52;20.10;71.40
43338;DHT22;28933;52.492;13.434;2023-07-08T01:44:39;20.10;71.40
43338;DHT22;28933;52.492;13.434;2023-07-08T01:47:25;20.00;71.10
43338;DHT22;28933;52.492;13.434;2023-07-08T01:50:11;20.00;71.10
43338;DHT22;28933;52.492;13.434;2023-07-08T01:52:59;20.00;70.80
43338;DHT22;28933;52.492;13.434;2023-07-08T01:55:46;20.00;70.80
43338;DHT22;28933;52.492;13.434;2023-07-08T01:58:31;19.90;71.50
43338;DHT22;28933;52.492;13.434;2023-07-08T02:01:17;19.90;72.00
43338;DHT22;28933;52.492;13.434;2023-07-08T02:04:03;19.90;72.10
43338;DHT22;28933;52.492;13.434;2023-07-08T02:06:57;19.90;72.30
43338;DHT22;28933;52.492;13.434;2023-07-08T02:09:43;19.80;72.50
43338;DHT22;28933;52.492;13.434;2023-07-08T02:12:29;19.80;72.40
43338;DHT22;28933;52.492;13.434;2023-07-08T02:15:15;19.80;72.90
43338;DHT22;28933;52.492;13.434;2023-07-08T02:18:01;19.70;73.00
43338;DHT22;28933;52.492;13.434;2023-07-08T02:20:47;19.70;73.10
43338;DHT22;28933;52.492;13.434;2023-07-08T02:23:33;19.70;72.60
43338;DHT22;28933;52.492;13.434;2023-07-08T02:26:19;19.70;72.60
43338;DHT22;28933;52.492;13.434;2023-07-08T02:29:05;19.60;73.00
43338;DHT22;28933;52.492;13.434;2023-07-08T02:31:50;19.60;72.50
43338;DHT22;28933;52.492;13.434;2023-07-08T02:34:37;19.60;73.20
43338;DHT22;28933;52.492;13.434;2023-07-08T02:37:23;19.60;73.10
43338;DHT22;28933;52.492;13.434;2023-07-08T02:40:09;19.60;73.30
43338;DHT22;28933;52.492;13.434;2023-07-08T02:42:55;19.60;73.00
43338;DHT22;28933;52.492;13.434;2023-07-08T02:45:41;19.60;73.30
43338;DHT22;28933;52.492;13.434;2023-07-08T02:48:27;19.60;73.50
43338;DHT22;28933;52.492;13.434;2023-07-08T02:51:13;19.60;73.50
43338;DHT22;28933;52.492;13.434;2023-07-08T02:53:59;19.50;73.90
43338;DHT22;28933;52.492;13.434;2023-07-08T02:56:45;19.50;73.80
43338;DHT22;28933;52.492;13.434;2023-07-08T02:59:31;19.40;74.40
43338;DHT22;28933;52.492;13.434;2023-07-08T03:02:17;19.40;74.50
43338;DHT22;28933;52.492;13.434;2023-07-08T03:05:03;19.40;75.00
43338;DHT22;28933;52.492;13.434;2023-07-08T03:07:50;19.40;74.90
43338;DHT22;28933;52.492;13.434;2023-07-08T03:10:36;19.40;74.70
43338;DHT22;28933;52.492;13.434;2023-07-08T03:13:23;19.30;75.20
43338;DHT22;28933;52.492;13.434;2023-07-08T03:16:09;19.30;75.60
43338;DHT22;28933;52.492;13.434;2023-07-08T03:18:58;19.30;75.60
43338;DHT22;28933;52.492;13.434;2023-07-08T03:21:44;19.30;75.90
43338;DHT22;28933;52.492;13.434;2023-07-08T03:24:30;19.40;76.10
43338;DHT22;28933;52.492;13.434;2023-07-08T03:27:16;19.40;76.00
43338;DHT22;28933;52.492;13.434;2023-07-08T03:30:02;19.30;76.70
43338;DHT22;28933;52.492;13.434;2023-07-08T03:32:50;19.30;76.10
43338;DHT22;28933;52.492;13.434;2023-07-08T03:35:37;19.30;76.40
43338;DHT22;28933;52.492;13.434;2023-07-08T03:38:24;19.30;76.10
43338;DHT22;28933;52.492;13.434;2023-07-08T03:41:10;19.30;76.60
43338;DHT22;28933;52.492;13.434;2023-07-08T03:43:56;19.40;76.80
43338;DHT22;28933;52.492;13.434;2023-07-08T03:46:44;19.40;77.10
43338;DHT22;28933;52.492;13.434;2023-07-08T03:49:30;19.40;77.30
43338;DHT22;28933;52.492;13.434;2023-07-08T03:52:16;19.40;77.40
43338;DHT22;28933;52.492;13.434;2023-07-08T03:55:03;19.50;77.30
43338;DHT22;28933;52.492;13.434;2023-07-08T03:57:49;19.50;77.50
43338;DHT22;28933;52.492;13.434;2023-07-08T04:00:35;19.50;77.50
43338;DHT22;28933;52.492;13.434;2023-07-08T04:03:21;19.60;77.80
43338;DHT22;28933;52.492;13.434;2023-07-08T04:06:07;19.60;77.80
43338;DHT22;28933;52.492;13.434;2023-07-08T04:08:53;19.60;77.90
43338;DHT22;28933;52.492;13.434;2023-07-08T04:11:39;19.60;77.40
43338;DHT22;28933;52.492;13.434;2023-07-08T04:14:25;19.70;77.30
43338;DHT22;28933;52.492;13.434;2023-07-08T04:17:11;19.70;77.50
43338;DHT22;28933;52.492;13.434;2023-07-08T04:19:58;19.80;77.20
43338;DHT22;28933;52.492;13.434;2023-07-08T04:22:49;19.80;76.90
43338;DHT22;28933;52.492;13.434;2023-07-08T04:25:35;19.80;76.60
43338;DHT22;28933;52.492;13.434;2023-07-08T04:28:21;19.90;77.20
43338;DHT22;28933;52.492;13.434;2023-07-08T04:31:07;19.90;76.60
43338;DHT22;28933;52.492;13.434;2023-07-08T04:33:53;19.90;76.60
43338;DHT22;28933;52.492;13.434;2023-07-08T04:36:39;19.90;76.70
43338;DHT22;28933;52.492;13.434;2023-07-08T04:39:25;20.00;77.10
43338;DHT22;28933;52.492;13.434;2023-07-08T04:42:12;20.00;77.50
43338;DHT22;28933;52.492;13.434;2023-07-08T04:45:03;20.10;77.60
43338;DHT22;28933;52.492;13.434;2023-07-08T04:47:51;20.10;77.60
43338;DHT22;28933;52.492;13.434;2023-07-08T04:50:43;20.20;77.10
43338;DHT22;28933;52.492;13.434;2023-07-08T04:53:29;20.20;76.80
43338;DHT22;28933;52.492;13.434;2023-07-08T04:56:15;20.30;76.70
43338;DHT22;28933;52.492;13.434;2023-07-08T04:59:00;20.30;76.80
43338;DHT22;28933;52.492;13.434;2023-07-08T05:01:47;20.40;76.70
43338;DHT22;28933;52.492;13.434;2023-07-08T05:04:34;20.50;76.70
43338;DHT22;28933;52.492;13.434;2023-07-08T05:07:20;20.50;77.00
43338;DHT22;28933;52.492;13.434;2023-07-08T05:10:06;20.50;76.90
43338;DHT22;28933;52.492;13.434;2023-07-08T05:12:52;20.60;76.80
43338;DHT22;28933;52.492;13.434;2023-07-08T05:15:38;20.60;76.40
43338;DHT22;28933;52.492;13.434;2023-07-08T05:18:24;20.70;76.30
43338;DHT22;28933;52.492;13.434;2023-07-08T05:21:10;20.80;76.10
43338;DHT22;28933;52.492;13.434;2023-07-08T05:23:56;20.80;75.70
43338;DHT22;28933;52.492;13.434;2023-07-08T05:26:42;20.90;75.80
43338;DHT22;28933;52.492;13.434;2023-07-08T05:29:29;21.00;75.90
43338;DHT22;28933;52.492;13.434;2023-07-08T05:32:15;21.00;75.80
43338;DHT22;28933;52.492;13.434;2023-07-08T05:35:01;21.10;75.70
43338;DHT22;28933;52.492;13.434;2023-07-08T05:37:47;21.20;75.60
43338;DHT22;28933;52.492;13.434;2023-07-08T05:40:33;21.20;75.40
43338;DHT22;28933;52.492;13.434;2023-07-08T05:43:19;21.30;75.10
43338;DHT22;28933;52.492;13.434;2023-07-08T05:46:05;21.30;74.60
43338;DHT22;28933;52.492;13.434;2023-07-08T05:48:51;21.40;74.60
43338;DHT22;28933;52.492;13.434;2023-07-08T05:51:37;21.40;74.10
43338;DHT22;28933;52.492;13.434;2023-07-08T05:54:23;21.50;73.90
43338;DHT22;28933;52.492;13.434;2023-07-08T05:57:10;21.50;73.70
43338;DHT22;28933;52.492;13.434;2023-07-08T05:59:56;21.60;73.70
43338;DHT22;28933;52.492;13.434;2023-07-08T06:02:42;21.70;73.50
43338;DHT22;28933;52.492;13.434;2023-07-08T06:05:28;21.70;73.20
43338;DHT22;28933;52.492;13.434;2023-07-08T06:08:14;21.80;73.30
43338;DHT22;28933;52.492;13.434;2023-07-08T06:11:00;21.80;73.10
43338;DHT22;28933;52.492;13.434;2023-07-08T06:13:46;21.90;72.90
43338;DHT22;28933;52.492;13.434;2023-07-08T06:16:33;22.00;73.10
43338;DHT22;28933;52.492;13.434;2023-07-08T06:19:21;22.10;72.70
43338;DHT22;28933;52.492;13.434;2023-07-08T06:22:07;22.10;72.50
43338;DHT22;28933;52.492;13.434;2023-07-08T06:24:53;22.20;72.20
43338;DHT22;28933;52.492;13.434;2023-07-08T06:27:38;22.30;72.30
43338;DHT22;28933;52.492;13.434;2023-07-08T06:30:24;22.30;72.10
43338;DHT22;28933;52.492;13.434;2023-07-08T06:33:10;22.40;72.10
43338;DHT22;28933;52.492;13.434;2023-07-08T06:35:57;22.50;71.70
43338;DHT22;28933;52.492;13.434;2023-07-08T06:38:43;22.60;71.20
43338;DHT22;28933;52.492;13.434;2023-07-08T06:41:29;22.70;71.50
43338;DHT22;28933;52.492;13.434;2023-07-08T06:44:15;22.70;71.30
43338;DHT22;28933;52.492;13.434;2023-07-08T06:47:01;22.80;71.00
43338;DHT22;28933;52.492;13.434;2023-07-08T06:49:47;22.90;71.30
43338;DHT22;28933;52.492;13.434;2023-07-08T06:52:33;22.90;71.00
43338;DHT22;28933;52.492;13.434;2023-07-08T06:55:23;23.00;70.70
43338;DHT22;28933;52.492;13.434;2023-07-08T06:58:09;23.10;70.40
43338;DHT22;28933;52.492;13.434;2023-07-08T07:00:55;23.20;70.40
43338;DHT22;28933;52.492;13.434;2023-07-08T07:03:43;23.30;70.40
43338;DHT22;28933;52.492;13.434;2023-07-08T07:06:29;23.40;70.30
43338;DHT22;28933;52.492;13.434;2023-07-08T07:09:15;23.40;70.50
43338;DHT22;28933;52.492;13.434;2023-07-08T07:12:01;23.50;69.60
43338;DHT22;28933;52.492;13.434;2023-07-08T07:14:49;23.60;69.30
43338;DHT22;28933;52.492;13.434;2023-07-08T07:17:38;23.70;69.40
43338;DHT22;28933;52.492;13.434;2023-07-08T07:20:24;23.70;69.80
43338;DHT22;28933;52.492;13.434;2023-07-08T07:23:10;23.80;69.00
43338;DHT22;28933;52.492;13.434;2023-07-08T07:25:56;23.90;69.10
43338;DHT22;28933;52.492;13.434;2023-07-08T07:28:43;24.00;69.10
43338;DHT22;28933;52.492;13.434;2023-07-08T07:31:29;24.10;68.90
43338;DHT22;28933;52.492;13.434;2023-07-08T07:34:15;24.20;68.60
43338;DHT22;28933;52.492;13.434;2023-07-08T07:37:02;24.30;69.00
43338;DHT22;28933;52.492;13.434;2023-07-08T07:39:47;24.30;68.80
43338;DHT22;28933;52.492;13.434;2023-07-08T07:42:34;24.40;68.70
43338;DHT22;28933;52.492;13.434;2023-07-08T07:45:20;24.50;68.10
43338;DHT22;28933;52.492;13.434;2023-07-08T07:48:08;24.60;68.40
43338;DHT22;28933;52.492;13.434;2023-07-08T07:50:54;24.70;68.20
43338;DHT22;28933;52.492;13.434;2023-07-08T07:53:40;24.70;67.60
43338;DHT22;28933;52.492;13.434;2023-07-08T07:56:26;24.80;67.60
43338;DHT22;28933;52.492;13.434;2023-07-08T07:59:12;24.90;67.90
43338;DHT22;28933;52.492;13.434;2023-07-08T08:01:58;24.90;66.60
43338;DHT22;28933;52.492;13.434;2023-07-08T08:04:44;25.00;67.00
43338;DHT22;28933;52.492;13.434;2023-07-08T08:07:30;25.10;66.70
43338;DHT22;28933;52.492;13.434;2023-07-08T08:10:16;25.20;66.50
43338;DHT22;28933;52.492;13.434;2023-07-08T08:13:02;25.30;66.50
43338;DHT22;28933;52.492;13.434;2023-07-08T08:15:48;25.40;66.30
43338;DHT22;28933;52.492;13.434;2023-07-08T08:18:34;25.50;66.10
43338;DHT22;28933;52.492;13.434;2023-07-08T08:21:20;25.60;66.10
43338;DHT22;28933;52.492;13.434;2023-07-08T08:24:07;25.80;65.60
43338;DHT22;28933;52.492;13.434;2023-07-08T08:26:53;25.80;64.70
43338;DHT22;28933;52.492;13.434;2023-07-08T08:29:39;25.90;64.50
43338;DHT22;28933;52.492;13.434;2023-07-08T08:32:25;26.00;64.50
43338;DHT22;28933;52.492;13.434;2023-07-08T08:35:10;26.10;64.30
43338;DHT22;28933;52.492;13.434;2023-07-08T08:37:56;26.10;64.30
43338;DHT22;28933;52.492;13.434;2023-07-08T08:40:43;26.20;64.60
43338;DHT22;28933;52.492;13.434;2023-07-08T08:43:35;26.30;64.40
43338;DHT22;28933;52.492;13.434;2023-07-08T08:49:25;26.50;64.20
43338;DHT22;28933;52.492;13.434;2023-07-08T08:52:13;26.60;64.40
43338;DHT22;28933;52.492;13.434;2023-07-08T08:55:00;26.60;62.50
43338;DHT22;28933;52.492;13.434;2023-07-08T08:58:54;26.70;62.50
43338;DHT22;28933;52.492;13.434;2023-07-08T09:01:15;26.80;62.40
43338;DHT22;28933;52.492;13.434;2023-07-08T09:04:15;26.90;62.00
43338;DHT22;28933;52.492;13.434;2023-07-08T09:07:16;27.00;62.20
43338;DHT22;28933;52.492;13.434;2023-07-08T09:10:52;27.10;62.40
43338;DHT22;28933;52.492;13.434;2023-07-08T09:13:25;27.20;61.60
43338;DHT22;28933;52.492;13.434;2023-07-08T09:19:45;27.30;60.90
43338;DHT22;28933;52.492;13.434;2023-07-08T09:22:44;27.40;59.80
43338;DHT22;28933;52.492;13.434;2023-07-08T09:25:39;27.50;58.10
43338;DHT22;28933;52.492;13.434;2023-07-08T09:28:41;27.50;56.80
43338;DHT22;28933;52.492;13.434;2023-07-08T09:31:30;27.60;56.80
43338;DHT22;28933;52.492;13.434;2023-07-08T09:34:23;27.60;57.00
43338;DHT22;28933;52.492;13.434;2023-07-08T09:40:30;27.90;57.60
43338;DHT22;28933;52.492;13.434;2023-07-08T09:46:12;28.10;56.50
43338;DHT22;28933;52.492;13.434;2023-07-08T09:48:58;28.20;57.80
43338;DHT22;28933;52.492;13.434;2023-07-08T09:51:45;28.20;56.20
43338;DHT22;28933;52.492;13.434;2023-07-08T09:54:31;28.20;53.90
43338;DHT22;28933;52.492;13.434;2023-07-08T09:57:28;28.20;54.10
43338;DHT22;28933;52.492;13.434;2023-07-08T10:00:19;28.30;53.50
43338;DHT22;28933;52.492;13.434;2023-07-08T10:03:22;28.40;53.00
43338;DHT22;28933;52.492;13.434;2023-07-08T10:06:23;28.50;53.70
43338;DHT22;28933;52.492;13.434;2023-07-08T10:09:14;28.60;54.60
43338;DHT22;28933;52.492;13.434;2023-07-08T10:12:08;28.60;53.70
43338;DHT22;28933;52.492;13.434;2023-07-08T10:15:15;28.70;53.50
43338;DHT22;28933;52.492;13.434;2023-07-08T10:18:04;28.80;54.30
43338;DHT22;28933;52.492;13.434;2023-07-08T10:30:24;29.00;52.90
43338;DHT22;28933;52.492;13.434;2023-07-08T10:33:35;29.00;52.40
43338;DHT22;28933;52.492;13.434;2023-07-08T10:36:34;29.10;52.70
43338;DHT22;28933;52.492;13.434;2023-07-08T10:42:43;29.20;52.50
43338;DHT22;28933;52.492;13.434;2023-07-08T10:51:39;29.30;51.00
43338;DHT22;28933;52.492;13.434;2023-07-08T10:58:06;29.40;51.50
43338;DHT22;28933;52.492;13.434;2023-07-08T11:01:14;29.40;51.60
43338;DHT22;28933;52.492;13.434;2023-07-08T11:06:57;29.60;52.30
43338;DHT22;28933;52.492;13.434;2023-07-08T11:10:20;29.60;51.10
43338;DHT22;28933;52.492;13.434;2023-07-08T11:13:16;29.60;51.30
43338;DHT22;28933;52.492;13.434;2023-07-08T11:16:10;29.70;51.10
43338;DHT22;28933;52.492;13.434;2023-07-08T11:22:00;29.80;50.30
43338;DHT22;28933;52.492;13.434;2023-07-08T11:24:49;29.80;50.10
43338;DHT22;28933;52.492;13.434;2023-07-08T11:27:38;29.90;50.50
43338;DHT22;28933;52.492;13.434;2023-07-08T11:30:29;29.90;49.50
43338;DHT22;28933;52.492;13.434;2023-07-08T11:33:17;29.90;49.50
43338;DHT22;28933;52.492;13.434;2023-07-08T11:36:05;29.90;49.60
43338;DHT22;28933;52.492;13.434;2023-07-08T11:38:56;30.00;49.30
43338;DHT22;28933;52.492;13.434;2023-07-08T11:41:43;30.00;50.60
43338;DHT22;28933;52.492;13.434;2023-07-08T11:44:29;30.10;49.30
43338;DHT22;28933;52.492;13.434;2023-07-08T11:47:22;30.10;48.70
43338;DHT22;28933;52.492;13.434;2023-07-08T11:50:19;30.10;48.80
43338;DHT22;28933;52.492;13.434;2023-07-08T11:53:10;30.10;49.00
43338;DHT22;28933;52.492;13.434;2023-07-08T11:56:00;30.10;49.40
43338;DHT22;28933;52.492;13.434;2023-07-08T11:58:50;30.20;48.80
43338;DHT22;28933;52.492;13.434;2023-07-08T12:01:46;30.20;49.00
43338;DHT22;28933;52.492;13.434;2023-07-08T12:04:34;30.20;49.00
43338;DHT22;28933;52.492;13.434;2023-07-08T12:07:39;30.30;49.00
43338;DHT22;28933;52.492;13.434;2023-07-08T12:10:50;30.30;49.00
43338;DHT22;28933;52.492;13.434;2023-07-08T12:13:36;30.30;48.90
43338;DHT22;28933;52.492;13.434;2023-07-08T12:16:22;30.40;48.60
43338;DHT22;28933;52.492;13.434;2023-07-08T12:19:13;30.40;48.40
43338;DHT22;28933;52.492;13.434;2023-07-08T12:22:01;30.50;48.10
43338;DHT22;28933;52.492;13.434;2023-07-08T12:24:47;30.60;48.90
43338;DHT22;28933;52.492;13.434;2023-07-08T12:27:33;30.60;48.90
43338;DHT22;28933;52.492;13.434;2023-07-08T12:30:19;30.70;48.40
43338;DHT22;28933;52.492;13.434;2023-07-08T12:36:16;30.80;46.40
43338;DHT22;28933;52.492;13.434;2023-07-08T12:39:05;30.80;48.10
43338;DHT22;28933;52.492;13.434;2023-07-08T12:41:51;30.80;47.10
43338;DHT22;28933;52.492;13.434;2023-07-08T12:44:38;30.80;46.00
43338;DHT22;28933;52.492;13.434;2023-07-08T12:47:28;30.80;46.00
43338;DHT22;28933;52.492;13.434;2023-07-08T12:50:14;30.90;46.50
43338;DHT22;28933;52.492;13.434;2023-07-08T12:53:00;30.90;45.90
43338;DHT22;28933;52.492;13.434;2023-07-08T12:55:57;31.00;45.80
43338;DHT22;28933;52.492;13.434;2023-07-08T12:58:49;31.10;46.00
43338;DHT22;28933;52.492;13.434;2023-07-08T13:01:36;31.10;45.60
43338;DHT22;28933;52.492;13.434;2023-07-08T13:04:22;31.20;45.50
43338;DHT22;28933;52.492;13.434;2023-07-08T13:07:22;31.20;45.20
43338;DHT22;28933;52.492;13.434;2023-07-08T13:10:19;31.20;44.80
43338;DHT22;28933;52.492;13.434;2023-07-08T13:13:08;31.30;44.70
43338;DHT22;28933;52.492;13.434;2023-07-08T13:15:55;31.30;44.60
43338;DHT22;28933;52.492;13.434;2023-07-08T13:18:41;31.40;44.80
43338;DHT22;28933;52.492;13.434;2023-07-08T13:21:28;31.60;44.30
43338;DHT22;28933;52.492;13.434;2023-07-08T13:24:16;31.60;44.10
43338;DHT22;28933;52.492;13.434;2023-07-08T13:27:05;31.70;44.30
43338;DHT22;28933;52.492;13.434;2023-07-08T13:29:53;31.70;44.30
43338;DHT22;28933;52.492;13.434;2023-07-08T13:32:39;31.80;43.80
43338;DHT22;28933;52.492;13.434;2023-07-08T13:35:36;31.90;44.10
43338;DHT22;28933;52.492;13.434;2023-07-08T13:38:33;31.90;44.60
43338;DHT22;28933;52.492;13.434;2023-07-08T13:41:23;32.10;44.20
43338;DHT22;28933;52.492;13.434;2023-07-08T13:44:10;32.10;43.70
43338;DHT22;28933;52.492;13.434;2023-07-08T13:46:58;32.20;43.50
43338;DHT22;28933;52.492;13.434;2023-07-08T13:49:45;32.30;43.90
43338;DHT22;28933;52.492;13.434;2023-07-08T13:52:33;32.30;43.30
43338;DHT22;28933;52.492;13.434;2023-07-08T13:55:20;32.30;42.30
43338;DHT22;28933;52.492;13.434;2023-07-08T13:58:07;32.30;42.70
43338;DHT22;28933;52.492;13.434;2023-07-08T14:00:57;32.30;42.20
43338;DHT22;28933;52.492;13.434;2023-07-08T14:03:44;32.40;42.40
43338;DHT22;28933;52.492;13.434;2023-07-08T14:06:33;32.40;42.10
43338;DHT22;28933;52.492;13.434;2023-07-08T14:09:20;32.40;42.40
43338;DHT22;28933;52.492;13.434;2023-07-08T14:12:07;32.50;42.20
43338;DHT22;28933;52.492;13.434;2023-07-08T14:14:53;32.60;42.60
43338;DHT22;28933;52.492;13.434;2023-07-08T14:17:39;32.70;42.40
43338;DHT22;28933;52.492;13.434;2023-07-08T14:20:26;32.80;42.10
43338;DHT22;28933;52.492;13.434;2023-07-08T14:23:13;32.80;42.00
43338;DHT22;28933;52.492;13.434;2023-07-08T14:25:59;32.90;41.60
43338;DHT22;28933;52.492;13.434;2023-07-08T14:28:44;32.90;41.20
43338;DHT22;28933;52.492;13.434;2023-07-08T14:31:30;32.80;40.80
43338;DHT22;28933;52.492;13.434;2023-07-08T14:34:25;32.80;41.00
43338;DHT22;28933;52.492;13.434;2023-07-08T14:37:14;32.80;41.40
43338;DHT22;28933;52.492;13.434;2023-07-08T14:40:05;32.80;40.80
43338;DHT22;28933;52.492;13.434;2023-07-08T14:43:18;32.70;41.10
43338;DHT22;28933;52.492;13.434;2023-07-08T14:46:09;32.70;40.60
43338;DHT22;28933;52.492;13.434;2023-07-08T14:48:56;32.70;41.20
43338;DHT22;28933;52.492;13.434;2023-07-08T14:51:42;32.80;40.90
43338;DHT22;28933;52.492;13.434;2023-07-08T14:54:28;32.80;40.50
43338;DHT22;28933;52.492;13.434;2023-07-08T14:57:16;32.90;40.70
43338;DHT22;28933;52.492;13.434;2023-07-08T15:00:03;32.90;40.50
43338;DHT22;28933;52.492;13.434;2023-07-08T15:02:51;33.00;40.50
43338;DHT22;28933;52.492;13.434;2023-07-08T15:05:37;33.00;40.20
43338;DHT22;28933;52.492;13.434;2023-07-08T15:08:23;33.10;40.30
43338;DHT22;28933;52.492;13.434;2023-07-08T15:11:11;33.20;39.80
43338;DHT22;28933;52.492;13.434;2023-07-08T15:13:58;33.20;39.80
43338;DHT22;28933;52.492;13.434;2023-07-08T15:16:44;33.20;40.00
43338;DHT22;28933;52.492;13.434;2023-07-08T15:19:31;33.30;39.80
43338;DHT22;28933;52.492;13.434;2023-07-08T15:22:18;33.30;39.30
43338;DHT22;28933;52.492;13.434;2023-07-08T15:25:06;33.30;40.00
43338;DHT22;28933;52.492;13.434;2023-07-08T15:27:53;33.40;39.80
43338;DHT22;28933;52.492;13.434;2023-07-08T15:30:40;33.40;40.00
43338;DHT22;28933;52.492;13.434;2023-07-08T15:33:25;33.50;40.50
43338;DHT22;28933;52.492;13.434;2023-07-08T15:36:12;33.60;40.20
43338;DHT22;28933;52.492;13.434;2023-07-08T15:38:59;33.60;40.10
43338;DHT22;28933;52.492;13.434;2023-07-08T15:41:44;33.70;40.70
43338;DHT22;28933;52.492;13.434;2023-07-08T15:44:30;33.80;39.40
43338;DHT22;28933;52.492;13.434;2023-07-08T15:47:16;33.80;39.60
43338;DHT22;28933;52.492;13.434;2023-07-08T15:50:11;33.90;39.60
43338;DHT22;28933;52.492;13.434;2023-07-08T15:52:58;33.90;39.60
43338;DHT22;28933;52.492;13.434;2023-07-08T15:55:46;34.00;39.20
43338;DHT22;28933;52.492;13.434;2023-07-08T15:58:33;33.90;38.80
43338;DHT22;28933;52.492;13.434;2023-07-08T16:01:22;33.90;38.40
43338;DHT22;28933;52.492;13.434;2023-07-08T16:07:06;33.90;39.10
43338;DHT22;28933;52.492;13.434;2023-07-08T16:09:53;33.90;39.00
43338;DHT22;28933;52.492;13.434;2023-07-08T16:12:39;34.00;39.30
43338;DHT22;28933;52.492;13.434;2023-07-08T16:15:31;34.00;39.30
43338;DHT22;28933;52.492;13.434;2023-07-08T16:18:17;33.90;39.60
43338;DHT22;28933;52.492;13.434;2023-07-08T16:21:04;33.90;40.50
43338;DHT22;28933;52.492;13.434;2023-07-08T16:23:50;34.00;39.70
43338;DHT22;28933;52.492;13.434;2023-07-08T16:26:38;34.00;39.60
43338;DHT22;28933;52.492;13.434;2023-07-08T16:29:25;34.00;39.90
43338;DHT22;28933;52.492;13.434;2023-07-08T16:32:13;34.00;39.80
43338;DHT22;28933;52.492;13.434;2023-07-08T16:35:00;34.00;40.10
43338;DHT22;28933;52.492;13.434;2023-07-08T16:37:48;33.80;39.10
43338;DHT22;28933;52.492;13.434;2023-07-08T16:40:34;33.70;39.50
43338;DHT22;28933;52.492;13.434;2023-07-08T16:43:25;33.60;39.20
43338;DHT22;28933;52.492;13.434;2023-07-08T16:46:14;33.50;39.30
43338;DHT22;28933;52.492;13.434;2023-07-08T16:49:00;33.30;39.20
43338;DHT22;28933;52.492;13.434;2023-07-08T16:51:46;33.20;39.20
43338;DHT22;28933;52.492;13.434;2023-07-08T16:54:32;33.10;39.50
43338;DHT22;28933;52.492;13.434;2023-07-08T16:57:19;33.10;39.40
43338;DHT22;28933;52.492;13.434;2023-07-08T17:00:06;32.90;39.20
43338;DHT22;28933;52.492;13.434;2023-07-08T17:02:52;33.00;39.30
43338;DHT22;28933;52.492;13.434;2023-07-08T17:05:38;32.90;39.40
43338;DHT22;28933;52.492;13.434;2023-07-08T17:08:24;32.80;39.40
43338;DHT22;28933;52.492;13.434;2023-07-08T17:11:10;32.70;39.20
43338;DHT22;28933;52.492;13.434;2023-07-08T17:13:56;32.60;39.30
43338;DHT22;28933;52.492;13.434;2023-07-08T17:16:42;32.50;39.50
43338;DHT22;28933;52.492;13.434;2023-07-08T17:19:30;32.50;39.50
43338;DHT22;28933;52.492;13.434;2023-07-08T17:22:16;32.40;39.50
43338;DHT22;28933;52.492;13.434;2023-07-08T17:25:04;32.40;39.70
43338;DHT22;28933;52.492;13.434;2023-07-08T17:27:54;32.30;40.00
43338;DHT22;28933;52.492;13.434;2023-07-08T17:30:41;32.10;39.90
43338;DHT22;28933;52.492;13.434;2023-07-08T17:33:28;32.00;40.10
43338;DHT22;28933;52.492;13.434;2023-07-08T17:36:14;31.90;40.50
43338;DHT22;28933;52.492;13.434;2023-07-08T17:39:00;31.80;40.30
43338;DHT22;28933;52.492;13.434;2023-07-08T17:41:47;31.70;40.40
43338;DHT22;28933;52.492;13.434;2023-07-08T17:44:37;31.60;40.40
43338;DHT22;28933;52.492;13.434;2023-07-08T17:47:23;31.50;40.40
43338;DHT22;28933;52.492;13.434;2023-07-08T17:50:29;31.40;40.50
43338;DHT22;28933;52.492;13.434;2023-07-08T17:53:15;31.30;40.60
43338;DHT22;28933;52.492;13.434;2023-07-08T17:56:04;31.30;40.80
43338;DHT22;28933;52.492;13.434;2023-07-08T17:58:53;31.30;40.90
43338;DHT22;28933;52.492;13.434;2023-07-08T18:01:40;31.20;41.00
43338;DHT22;28933;52.492;13.434;2023-07-08T18:04:26;31.10;41.20
43338;DHT22;28933;52.492;13.434;2023-07-08T18:07:12;31.00;41.60
43338;DHT22;28933;52.492;13.434;2023-07-08T18:09:58;30.80;41.50
43338;DHT22;28933;52.492;13.434;2023-07-08T18:12:45;30.70;41.70
43338;DHT22;28933;52.492;13.434;2023-07-08T18:15:34;30.60;41.70